Time;durP1;ratioP1;P1;durP2;ratioP2;P2;SDS_P1;SDS_P2;PMS_P1;PMS_P2;Temp;Humidity;BMP_temperature;BMP_pressure;BME280_temperature;BME280_humidity;BME280_pressure;Samples;Min_cycle;Max_cycle;Signal;HPM_P1;HPM_P2
2023/09/21 00:01:05;;;;;;;;;2.33;2.00;;;;;22.63;57.55;99114.25;5072083;28;45914;-80
2023/09/21 00:03:32;;;;;;;;;2.00;2.00;;;;;22.64;57.64;99116.00;5056713;28;47086;-80
2023/09/21 00:05:58;;;;;;;;;2.33;2.00;;;;;22.67;56.78;99122.97;5056179;28;45526;-81
2023/09/21 00:08:24;;;;;;;;;4.00;4.00;;;;;22.66;55.20;99117.69;5056977;28;45654;-80
2023/09/21 00:10:54;;;;;;;;;3.00;2.67;;;;;22.71;54.18;99113.06;5056672;28;45359;-79
2023/09/21 00:13:26;;;;;;;;;2.00;2.00;;;;;22.76;54.01;99114.59;5057970;28;45552;-79
2023/09/21 00:15:55;;;;;;;;;2.00;2.00;;;;;22.80;53.20;99108.22;5059544;28;45823;-80
2023/09/21 00:18:21;;;;;;;;;3.00;3.00;;;;;22.85;52.06;99108.00;5069325;28;45417;-80
2023/09/21 00:20:56;;;;;;;;;2.00;2.00;;;;;22.93;52.75;99099.69;5067401;28;46682;-80
2023/09/21 00:23:26;;;;;;;;;2.33;2.00;;;;;22.91;52.50;99080.25;5059983;28;45327;-75
2023/09/21 00:25:57;;;;;;;;;3.00;3.00;;;;;23.06;51.51;99100.91;5042618;28;45557;-79
2023/09/21 00:28:29;;;;;;;;;2.33;2.33;;;;;23.14;50.85;99101.44;5067437;28;45529;-78
2023/09/21 00:30:57;;;;;;;;;1.00;1.00;;;;;23.22;50.37;99104.63;5056977;28;46218;-79
2023/09/21 00:33:27;;;;;;;;;3.00;3.00;;;;;23.29;50.06;99115.00;5057136;28;45631;-80
2023/09/21 00:35:53;;;;;;;;;3.00;3.00;;;;;23.34;50.17;99119.19;5070916;28;45451;-79
2023/09/21 00:38:20;;;;;;;;;2.00;2.00;;;;;23.31;49.95;99111.31;5055310;28;45655;-80
2023/09/21 00:40:47;;;;;;;;;2.00;2.00;;;;;23.39;49.72;99114.50;5065398;28;45480;-80
2023/09/21 00:43:21;;;;;;;;;2.00;2.00;;;;;23.38;49.79;99110.13;5057849;28;45549;-80
2023/09/21 00:45:51;;;;;;;;;3.00;3.00;;;;;23.08;49.72;99036.91;5059062;28;45475;-79
2023/09/21 00:48:22;;;;;;;;;4.67;3.67;;;;;23.47;49.30;99084.84;5073286;28;45437;-80
2023/09/21 00:50:49;;;;;;;;;2.00;2.00;;;;;23.49;49.65;99069.63;5055691;28;45995;-79
2023/09/21 00:53:16;;;;;;;;;2.33;2.00;;;;;23.51;49.04;99069.56;5063307;28;45732;-80
2023/09/21 00:55:50;;;;;;;;;3.00;2.33;;;;;23.51;49.15;99059.75;5039121;28;45403;-79
2023/09/21 00:58:17;;;;;;;;;3.00;3.00;;;;;23.55;49.36;99048.03;5059167;28;45783;-80
2023/09/21 01:00:44;;;;;;;;;3.33;2.33;;;;;23.48;49.54;99021.75;5070525;28;46208;-79
2023/09/21 01:03:13;;;;;;;;;3.00;2.00;;;;;23.53;48.94;99020.56;5079068;28;45443;-78
2023/09/21 01:05:45;;;;;;;;;3.00;3.00;;;;;23.54;48.85;99037.44;5077314;28;45318;-80
2023/09/21 01:08:14;;;;;;;;;3.67;3.00;;;;;23.55;48.84;99034.69;5045208;28;45521;-79
2023/09/21 01:10:50;;;;;;;;;3.00;2.00;;;;;23.55;48.41;99028.50;5074352;28;45496;-80
2023/09/21 01:13:17;;;;;;;;;4.00;4.00;;;;;23.58;48.39;99031.03;5056517;28;46041;-80
2023/09/21 01:15:58;;;;;;;;;3.33;3.00;;;;;23.66;47.72;99026.19;5060394;28;45627;-79
2023/09/21 01:18:24;;;;;;;;;3.33;2.00;;;;;23.67;47.76;99021.72;5070993;28;45383;-80
2023/09/21 01:20:55;;;;;;;;;4.00;3.00;;;;;23.73;47.60;99011.63;5062417;28;45501;-79
2023/09/21 01:23:45;;;;;;;;;2.00;2.00;;;;;23.75;46.96;99008.88;5059440;28;45373;-80
2023/09/21 01:26:12;;;;;;;;;3.00;3.00;;;;;23.78;46.58;99014.13;5071422;28;45489;-75
2023/09/21 01:28:39;;;;;;;;;4.00;3.00;;;;;23.84;45.05;99026.28;5063066;28;45488;-79
2023/09/21 01:31:09;;;;;;;;;4.00;4.00;;;;;23.82;45.29;98997.03;5063302;28;46138;-80
2023/09/21 01:33:35;;;;;;;;;3.00;3.00;;;;;23.85;44.09;98994.19;5070211;28;45474;-80
2023/09/21 01:36:01;;;;;;;;;4.00;3.33;;;;;23.99;44.09;98993.50;5061020;28;45462;-80
2023/09/21 01:38:27;;;;;;;;;3.67;3.67;;;;;23.96;44.10;98983.00;5059826;28;45300;-80
2023/09/21 01:40:53;;;;;;;;;5.00;3.00;;;;;24.02;44.36;98991.56;5074480;27;46235;-76
2023/09/21 01:43:19;;;;;;;;;5.67;4.00;;;;;23.98;44.64;98978.47;5059418;28;45567;-79
2023/09/21 01:45:49;;;;;;;;;4.00;3.00;;;;;24.06;44.12;98968.25;5057083;28;45343;-80
2023/09/21 01:48:18;;;;;;;;;2.00;1.67;;;;;24.05;43.23;98963.84;5079078;27;45331;-80
2023/09/21 01:50:47;;;;;;;;;2.33;2.00;;;;;24.12;42.93;98973.28;5060016;28;47742;-77
2023/09/21 01:53:14;;;;;;;;;3.33;3.00;;;;;24.10;43.65;98961.81;5058792;28;45595;-74
2023/09/21 01:55:40;;;;;;;;;2.67;2.67;;;;;24.07;43.94;98972.63;5059269;28;45478;-80
2023/09/21 01:58:09;;;;;;;;;3.33;3.00;;;;;24.12;42.32;98980.44;5058817;28;45343;-80
2023/09/21 02:00:39;;;;;;;;;3.67;3.00;;;;;24.05;42.56;98971.00;5063856;28;46978;-80
2023/09/21 02:03:06;;;;;;;;;3.00;3.00;;;;;24.15;43.05;98980.25;5047112;28;45558;-80
2023/09/21 02:05:36;;;;;;;;;4.00;4.00;;;;;24.18;43.15;98980.13;5073799;28;45485;-78
2023/09/21 02:08:04;;;;;;;;;5.33;4.00;;;;;24.18;42.17;98970.31;5064158;28;45266;-80
2023/09/21 02:10:31;;;;;;;;;2.00;2.00;;;;;24.14;42.44;98951.88;5067969;27;46065;-80
2023/09/21 02:12:59;;;;;;;;;3.00;2.00;;;;;24.13;42.28;98955.47;5051462;28;45545;-80
2023/09/21 02:15:26;;;;;;;;;3.67;3.67;;;;;24.14;42.18;98941.19;5076305;28;45614;-80
2023/09/21 02:17:56;;;;;;;;;3.33;3.33;;;;;24.13;42.62;98948.34;5053667;28;45420;-79
2023/09/21 02:20:28;;;;;;;;;3.00;3.00;;;;;24.14;42.88;98946.53;5067468;28;45468;-73
2023/09/21 02:23:00;;;;;;;;;3.00;2.33;;;;;24.16;42.29;98950.84;5059769;28;45481;-73
2023/09/21 02:25:30;;;;;;;;;2.00;2.00;;;;;24.17;41.60;98941.91;5077984;28;45443;-73
2023/09/21 02:27:56;;;;;;;;;2.00;2.00;;;;;24.18;41.76;98937.44;5069672;28;45499;-73
2023/09/21 02:30:23;;;;;;;;;2.00;2.00;;;;;24.19;41.97;98928.47;5070693;28;45469;-80
2023/09/21 02:32:51;;;;;;;;;3.33;3.00;;;;;24.16;41.66;98925.97;5077142;28;45297;-79
2023/09/21 02:35:27;;;;;;;;;2.00;2.00;;;;;24.13;41.44;98905.66;5075569;28;46675;-80
2023/09/21 02:37:54;;;;;;;;;4.00;3.67;;;;;24.19;41.14;98920.47;5058197;28;45503;-80
2023/09/21 02:40:21;;;;;;;;;4.00;3.00;;;;;24.22;40.69;98914.97;5050589;28;45954;-80
2023/09/21 02:42:52;;;;;;;;;1.00;1.00;;;;;24.20;40.63;98908.88;5057821;28;45431;-80
2023/09/21 02:45:20;;;;;;;;;3.00;3.00;;;;;24.23;39.92;98911.34;5058083;28;45312;-80
2023/09/21 02:47:47;;;;;;;;;3.00;2.67;;;;;24.29;40.32;98920.84;5069399;28;45659;-74
2023/09/21 02:50:14;;;;;;;;;3.00;2.00;;;;;24.23;40.63;98914.03;5061383;28;46531;-80
2023/09/21 02:53:04;;;;;;;;;3.00;3.00;;;;;24.28;40.34;98927.13;5068725;28;45567;-78
2023/09/21 02:55:29;;;;;;;;;2.33;2.33;;;;;24.31;40.54;98924.28;5073577;28;45437;-80
2023/09/21 02:58:24;;;;;;;;;4.67;4.00;;;;;24.31;40.70;98935.84;5058181;28;45263;-80
2023/09/21 03:00:49;;;;;;;;;3.00;2.67;;;;;24.32;40.71;98926.03;5057468;28;45963;-80
2023/09/21 03:03:22;;;;;;;;;2.00;2.00;;;;;24.28;40.73;98927.13;5043158;28;45249;-80
2023/09/21 03:05:49;;;;;;;;;3.00;3.00;;;;;24.30;40.78;98934.13;5069257;28;45452;-80
2023/09/21 03:08:16;;;;;;;;;3.00;2.00;;;;;24.30;40.51;98923.44;5051870;28;45321;-80
2023/09/21 03:10:47;;;;;;;;;3.00;3.00;;;;;24.28;41.02;98936.00;5060891;28;46116;-74
2023/09/21 03:13:17;;;;;;;;;3.00;2.33;;;;;24.34;41.63;98940.16;5055784;28;45564;-80
2023/09/21 03:15:44;;;;;;;;;3.00;2.00;;;;;24.26;41.29;98924.53;5058921;28;45642;-80
2023/09/21 03:18:10;;;;;;;;;2.00;2.00;;;;;24.27;41.58;98928.94;5072308;28;45406;-77
2023/09/21 03:20:36;;;;;;;;;2.00;2.00;;;;;24.27;41.33;98936.06;5057545;28;45525;-79
2023/09/21 03:23:09;;;;;;;;;2.00;2.00;;;;;24.21;41.29;98918.56;5051717;28;45586;-80
2023/09/21 03:25:49;;;;;;;;;2.00;2.00;;;;;24.29;41.28;98944.88;5049439;28;45548;-78
2023/09/21 03:28:17;;;;;;;;;3.00;3.00;;;;;24.28;41.64;98943.16;5072781;28;45406;-80
2023/09/21 03:30:44;;;;;;;;;2.00;2.00;;;;;24.26;41.58;98945.91;5059456;28;46479;-78
2023/09/21 03:33:11;;;;;;;;;3.33;3.00;;;;;24.24;41.42;98946.94;5051416;28;45426;-79
2023/09/21 03:35:39;;;;;;;;;3.00;2.67;;;;;24.14;41.51;98947.38;5057448;28;45249;-74
2023/09/21 03:38:21;;;;;;;;;2.00;2.00;;;;;24.15;41.67;98938.47;5072937;27;45254;-77
2023/09/21 03:40:48;;;;;;;;;3.33;2.00;;;;;24.18;41.65;98948.94;5071747;28;45421;-80
2023/09/21 03:43:14;;;;;;;;;2.67;2.33;;;;;24.11;40.98;98941.34;5066600;28;45455;-73
2023/09/21 03:45:43;;;;;;;;;3.00;2.00;;;;;24.12;41.10;98943.09;5063111;28;45379;-74
2023/09/21 03:48:11;;;;;;;;;2.00;2.00;;;;;24.09;41.25;98941.41;5058473;28;45443;-74
2023/09/21 03:50:37;;;;;;;;;2.00;2.00;;;;;24.06;41.85;98933.59;5058674;28;46338;-75
2023/09/21 03:53:09;;;;;;;;;1.67;1.67;;;;;23.95;41.14;98910.09;5076410;27;45445;-78
2023/09/21 03:55:36;;;;;;;;;2.00;2.00;;;;;24.01;41.35;98912.50;5062003;28;45896;-79
2023/09/21 03:58:02;;;;;;;;;2.33;2.00;;;;;23.82;40.37;98888.56;5072516;28;45715;-75
2023/09/21 04:03:03;;;;;;;;;2.67;2.00;;;;;24.04;40.82;98911.47;5056833;28;45648;-74
2023/09/21 04:05:35;;;;;;;;;2.00;1.33;;;;;24.05;41.02;98907.84;5056601;28;45431;-75
2023/09/21 04:08:01;;;;;;;;;2.00;2.00;;;;;24.10;40.99;98923.63;5043620;28;45600;-74
2023/09/21 04:10:28;;;;;;;;;1.00;1.00;;;;;24.09;40.75;98922.75;5075314;28;45856;-73
2023/09/21 04:12:56;;;;;;;;;3.67;2.00;;;;;24.11;41.26;98933.34;5074261;27;45303;-73
2023/09/21 04:15:24;;;;;;;;;3.33;2.00;;;;;24.09;41.19;98922.75;5073729;28;45478;-74
2023/09/21 04:17:51;;;;;;;;;0.00;0.00;;;;;24.05;40.98;98920.31;5071027;28;45620;-78
2023/09/21 04:20:18;;;;;;;;;3.00;3.00;;;;;24.05;41.44;98904.31;5075635;28;46271;-74
2023/09/21 04:22:46;;;;;;;;;2.00;1.33;;;;;24.01;41.10;98880.47;5075292;28;45505;-74
2023/09/21 04:25:14;;;;;;;;;2.00;2.00;;;;;24.03;41.51;98888.38;5073354;28;45393;-73
2023/09/21 04:27:42;;;;;;;;;2.00;2.00;;;;;23.96;41.55;98873.66;5074128;28;45228;-74
2023/09/21 04:30:09;;;;;;;;;1.33;1.00;;;;;23.97;41.23;98880.69;5073223;28;45949;-73
2023/09/21 04:32:38;;;;;;;;;2.67;2.00;;;;;23.95;41.33;98879.91;5072365;28;45518;-80
2023/09/21 04:35:07;;;;;;;;;3.67;3.00;;;;;23.94;41.72;98873.72;5072718;28;45901;-79
2023/09/21 04:37:34;;;;;;;;;4.00;2.00;;;;;23.96;41.05;98879.00;5058184;28;45560;-74
2023/09/21 04:40:06;;;;;;;;;2.00;2.00;;;;;23.92;40.93;98880.94;5076055;28;45517;-79
2023/09/21 04:42:32;;;;;;;;;1.33;1.33;;;;;23.88;41.38;98873.19;5076466;28;45508;-79
2023/09/21 04:44:58;;;;;;;;;2.00;2.00;;;;;23.85;41.76;98863.53;5078323;28;45410;-79
2023/09/21 04:47:25;;;;;;;;;2.00;1.00;;;;;23.86;41.42;98853.75;5076952;28;45462;-80
2023/09/21 04:49:53;;;;;;;;;2.00;2.00;;;;;23.76;41.05;98840.84;5078230;28;45434;-73
2023/09/21 04:52:20;;;;;;;;;2.00;2.00;;;;;23.80;40.70;98839.78;5079348;28;46537;-79
2023/09/21 04:54:51;;;;;;;;;2.00;2.00;;;;;23.77;40.94;98833.69;5073844;27;45518;-79
2023/09/21 04:57:19;;;;;;;;;3.00;2.33;;;;;23.84;40.88;98848.47;5075631;28;45451;-76
2023/09/21 04:59:46;;;;;;;;;2.67;2.00;;;;;23.86;41.03;98835.94;5065228;27;47047;-77
2023/09/21 05:02:12;;;;;;;;;2.33;2.00;;;;;23.81;40.52;98821.97;5077854;28;45446;-75
2023/09/21 05:04:38;;;;;;;;;2.00;2.00;;;;;23.80;40.83;98820.25;5057522;28;45536;-79
2023/09/21 05:07:05;;;;;;;;;1.67;1.67;;;;;23.81;41.58;98829.97;5076709;28;45402;-79
2023/09/21 05:09:31;;;;;;;;;2.33;2.33;;;;;23.87;40.64;98834.13;5076656;28;46123;-78
2023/09/21 05:11:56;;;;;;;;;2.00;2.00;;;;;23.84;40.27;98826.28;5059321;28;45357;-75
2023/09/21 05:14:22;;;;;;;;;3.00;3.00;;;;;23.74;40.48;98818.72;5078662;28;45524;-79
2023/09/21 05:16:48;;;;;;;;;2.33;2.33;;;;;23.80;40.70;98828.25;5079122;28;45532;-79
2023/09/21 05:19:14;;;;;;;;;3.00;3.00;;;;;23.81;40.31;98814.84;5078877;28;45979;-78
2023/09/21 05:21:40;;;;;;;;;3.00;3.00;;;;;23.77;40.21;98788.38;5058290;28;45441;-80
2023/09/21 05:24:07;;;;;;;;;1.67;1.67;;;;;23.79;39.79;98803.38;5061304;28;45469;-80
2023/09/21 05:26:33;;;;;;;;;1.00;1.00;;;;;23.91;39.64;98823.19;5078951;28;45810;-79
2023/09/21 05:28:58;;;;;;;;;2.00;2.00;;;;;23.90;39.43;98825.97;5060508;28;45538;-79
2023/09/21 05:31:24;;;;;;;;;2.33;2.33;;;;;23.78;39.77;98796.31;5057968;28;45521;-74
2023/09/21 05:33:49;;;;;;;;;4.67;3.00;;;;;23.95;39.69;98824.75;5067335;28;45586;-75
2023/09/21 05:36:15;;;;;;;;;5.00;4.33;;;;;23.99;39.98;98814.81;5076078;28;45631;-79
2023/09/21 05:38:41;;;;;;;;;3.00;2.67;;;;;23.94;39.82;98822.19;5077856;28;46197;-74
2023/09/21 05:41:06;;;;;;;;;1.00;1.00;;;;;23.94;39.95;98814.19;5079054;28;45498;-80
2023/09/21 05:43:32;;;;;;;;;2.33;2.00;;;;;23.97;39.78;98832.69;5076116;28;45552;-79
2023/09/21 05:45:58;;;;;;;;;3.00;3.00;;;;;23.97;40.36;98833.56;5078098;28;45418;-80
2023/09/21 05:48:23;;;;;;;;;1.67;1.67;;;;;23.98;40.72;98835.28;5060303;28;46557;-80
2023/09/21 05:50:49;;;;;;;;;3.00;2.00;;;;;23.90;40.51;98826.81;5073662;27;45556;-78
2023/09/21 05:53:16;;;;;;;;;3.67;3.00;;;;;23.97;40.42;98846.91;5060414;28;45344;-78
2023/09/21 05:55:45;;;;;;;;;2.00;2.00;;;;;23.93;40.71;98831.97;5077594;28;45394;-79
2023/09/21 05:58:11;;;;;;;;;2.00;2.00;;;;;23.90;40.57;98836.63;5063423;28;46936;-73
2023/09/21 06:00:36;;;;;;;;;8.33;8.33;;;;;23.85;40.44;98849.34;5059818;28;45390;-80
2023/09/21 06:03:02;;;;;;;;;2.00;2.00;;;;;23.91;40.14;98860.53;5066986;28;45576;-79
2023/09/21 06:05:29;;;;;;;;;2.33;2.00;;;;;23.92;40.19;98856.09;5058808;28;45392;-74
2023/09/21 06:07:55;;;;;;;;;3.00;3.00;;;;;23.97;40.79;98860.25;5058046;28;46420;-73
2023/09/21 06:10:31;;;;;;;;;3.33;3.00;;;;;23.96;40.44;98858.50;5077752;28;45621;-79
2023/09/21 06:12:57;;;;;;;;;3.00;3.00;;;;;24.04;40.07;98866.13;5076859;28;45463;-80
2023/09/21 06:15:23;;;;;;;;;2.00;1.00;;;;;23.97;40.34;98868.25;5055658;28;45713;-79
2023/09/21 06:17:48;;;;;;;;;2.00;2.00;;;;;24.04;40.44;98868.78;5074135;28;46102;-79
2023/09/21 06:20:15;;;;;;;;;4.00;2.33;;;;;24.03;40.10;98861.72;5075294;28;45466;-79
2023/09/21 06:22:41;;;;;;;;;3.00;2.33;;;;;24.09;40.60;98873.88;5077604;28;45879;-76
2023/09/21 06:25:07;;;;;;;;;3.00;3.00;;;;;24.11;40.74;98871.97;5076746;28;45871;-80
2023/09/21 06:27:37;;;;;;;;;21.50;21.50;;;;;24.09;40.55;98865.88;5077680;28;46153;-80
2023/09/21 06:30:03;;;;;;;;;4.00;4.00;;;;;24.15;40.96;98873.53;5074318;28;45390;-79
2023/09/21 06:32:29;;;;;;;;;5.00;3.00;;;;;24.18;40.68;98873.41;5057396;28;45503;-80
2023/09/21 06:34:56;;;;;;;;;3.00;3.00;;;;;24.18;40.84;98870.72;5077558;28;45554;-80
2023/09/21 06:37:22;;;;;;;;;2.00;2.00;;;;;24.16;40.32;98869.94;5077564;28;45561;-79
2023/09/21 06:39:48;;;;;;;;;3.00;3.00;;;;;24.13;40.42;98854.09;5076245;28;45417;-79
2023/09/21 06:42:16;;;;;;;;;5.00;4.00;;;;;24.18;40.21;98857.38;5075616;28;45449;-76
2023/09/21 06:44:42;;;;;;;;;2.33;2.33;;;;;24.16;41.15;98860.13;5054760;28;45550;-79
2023/09/21 06:47:08;;;;;;;;;3.00;2.33;;;;;24.15;40.63;98865.53;5072804;28;45637;-80
2023/09/21 06:49:36;;;;;;;;;4.00;3.00;;;;;24.20;40.16;98866.16;5076603;28;45413;-79
2023/09/21 06:52:04;;;;;;;;;3.00;3.00;;;;;24.29;40.57;98878.16;5072430;28;45567;-80
2023/09/21 06:54:30;;;;;;;;;2.33;2.33;;;;;24.32;40.79;98876.19;5076400;28;45343;-78
2023/09/21 06:57:03;;;;;;;;;2.33;2.33;;;;;24.32;40.74;98864.66;5058392;28;46207;-78
2023/09/21 06:59:31;;;;;;;;;3.00;3.00;;;;;24.36;40.32;98876.91;5077317;28;45460;-78
2023/09/21 07:01:58;;;;;;;;;2.00;2.00;;;;;24.41;40.71;98888.16;5075434;28;45588;-75
2023/09/21 07:04:26;;;;;;;;;2.00;2.00;;;;;24.38;40.49;98886.53;5064618;28;45544;-79
2023/09/21 07:06:51;;;;;;;;;2.00;2.00;;;;;24.39;40.26;98893.63;5075923;28;45500;-77
2023/09/21 07:09:18;;;;;;;;;3.33;2.00;;;;;24.35;40.19;98897.38;5057076;28;45435;-80
2023/09/21 07:11:44;;;;;;;;;2.33;2.00;;;;;24.41;40.40;98912.19;5076009;27;45474;-78
2023/09/21 07:14:10;;;;;;;;;4.33;4.00;;;;;24.41;40.06;98897.06;5075670;28;45297;-77
2023/09/21 07:16:36;;;;;;;;;2.33;2.33;;;;;24.50;40.06;98910.84;5075640;28;46221;-80
2023/09/21 07:19:02;;;;;;;;;4.00;3.00;;;;;24.41;40.51;98906.84;5073870;28;45398;-79
2023/09/21 07:21:27;;;;;;;;;3.33;2.67;;;;;24.52;41.02;98922.34;5073628;27;46162;-75
2023/09/21 07:23:53;;;;;;;;;4.00;3.00;;;;;24.54;41.85;98923.13;5071496;27;45714;-72
2023/09/21 07:26:19;;;;;;;;;5.33;4.33;;;;;24.42;41.60;98905.94;5076894;28;45955;-76
2023/09/21 07:28:45;;;;;;;;;2.00;2.00;;;;;24.46;42.08;98926.16;5079471;27;45318;-75
2023/09/21 07:31:10;;;;;;;;;1.67;1.67;;;;;24.44;42.35;98932.53;5087974;27;45387;-76
2023/09/21 07:33:37;;;;;;;;;3.00;3.00;;;;;24.33;42.64;98915.28;5088976;27;45394;-73
2023/09/21 07:36:03;;;;;;;;;3.00;3.00;;;;;24.41;41.99;98934.44;5086299;27;45970;-73
2023/09/21 07:38:28;;;;;;;;;3.67;3.67;;;;;24.43;42.13;98937.00;5088316;27;45636;-77
2023/09/21 07:40:54;;;;;;;;;3.00;2.67;;;;;24.37;42.23;98937.31;5087187;27;45266;-73
2023/09/21 07:43:20;;;;;;;;;2.00;2.00;;;;;24.40;41.97;98946.03;5088791;27;45439;-73
2023/09/21 07:45:47;;;;;;;;;3.00;3.00;;;;;24.40;42.12;98963.84;5086318;27;45981;-77
2023/09/21 07:48:13;;;;;;;;;4.00;3.00;;;;;24.32;42.53;98963.41;5087308;27;45628;-76
2023/09/21 07:50:38;;;;;;;;;3.00;3.00;;;;;24.32;43.09;98966.06;5085446;27;45512;-74
2023/09/21 07:53:04;;;;;;;;;2.00;2.00;;;;;24.35;43.02;98981.91;5066006;27;45644;-75
2023/09/21 07:55:30;;;;;;;;;2.33;1.67;;;;;24.30;43.05;98971.47;5084426;27;45489;-73
2023/09/21 07:57:56;;;;;;;;;2.00;2.00;;;;;24.18;42.64;98980.13;5058170;28;46625;-75
2023/09/21 08:00:22;;;;;;;;;3.00;3.00;;;;;24.24;42.67;98994.94;5072732;28;45481;-74
2023/09/21 08:02:49;;;;;;;;;4.67;4.00;;;;;24.22;43.06;99003.03;5062954;28;45667;-75
2023/09/21 08:05:15;;;;;;;;;3.67;3.00;;;;;24.19;42.88;99006.72;5072520;28;45700;-76
2023/09/21 08:07:41;;;;;;;;;2.67;2.00;;;;;24.21;42.49;99018.19;5069748;28;45982;-77
2023/09/21 08:10:07;;;;;;;;;4.00;2.00;;;;;24.20;43.38;99034.25;5057679;28;45514;-76
2023/09/21 08:12:38;;;;;;;;;2.33;2.33;;;;;24.13;44.41;99035.50;5062692;28;45451;-77
2023/09/21 08:15:11;;;;;;;;;4.00;4.00;;;;;24.09;45.39;99073.94;5080720;27;45966;-75
2023/09/21 08:17:37;;;;;;;;;3.00;3.00;;;;;24.02;45.67;99082.25;5072739;27;45442;-75
2023/09/21 08:20:09;;;;;;;;;4.00;4.00;;;;;23.92;45.73;99096.97;5084718;27;45512;-79
2023/09/21 08:22:36;;;;;;;;;3.00;3.00;;;;;23.81;47.55;99109.94;5063523;27;45636;-79
2023/09/21 08:25:04;;;;;;;;;6.00;4.67;;;;;23.70;49.17;99122.91;5083727;27;46042;-73
2023/09/21 08:27:29;;;;;;;;;7.33;5.00;;;;;23.58;50.66;99127.84;5086512;27;45373;-79
2023/09/21 08:29:57;;;;;;;;;5.00;4.00;;;;;23.54;50.88;99136.94;5052696;28;45754;-77
2023/09/21 08:32:24;;;;;;;;;4.00;4.00;;;;;23.37;52.46;99142.16;5053374;28;45521;-77
2023/09/21 08:34:49;;;;;;;;;4.33;3.67;;;;;23.17;52.32;99141.25;5056741;27;48221;-76
2023/09/21 08:37:15;;;;;;;;;4.67;3.00;;;;;23.19;52.70;99166.00;5069149;27;45476;-78
2023/09/21 08:39:40;;;;;;;;;3.00;2.33;;;;;23.14;52.72;99165.38;5085596;27;45357;-78
2023/09/21 08:42:07;;;;;;;;;4.00;3.67;;;;;23.16;52.00;99175.97;5085360;27;45414;-78
2023/09/21 08:44:33;;;;;;;;;4.33;4.00;;;;;23.15;53.19;99187.53;5064708;27;46305;-75
2023/09/21 08:47:00;;;;;;;;;5.00;3.00;;;;;23.03;53.65;99186.25;5060541;28;45314;-75
2023/09/21 08:49:29;;;;;;;;;3.33;2.67;;;;;22.97;55.29;99183.84;5077577;27;45787;-77
2023/09/21 08:51:57;;;;;;;;;3.00;3.00;;;;;22.90;55.52;99182.34;5062786;27;45579;-76
2023/09/21 08:54:23;;;;;;;;;3.33;2.67;;;;;22.92;55.87;99194.69;5086013;27;46263;-81
2023/09/21 08:56:55;;;;;;;;;4.67;4.00;;;;;22.79;56.66;99191.66;5085436;27;46196;-82
2023/09/21 08:59:21;;;;;;;;;3.67;3.67;;;;;22.70;56.61;99184.06;5081461;27;45438;-85
2023/09/21 09:01:46;;;;;;;;;5.00;5.00;;;;;22.85;57.06;99211.84;5065403;27;45914;-81
2023/09/21 09:04:14;;;;;;;;;4.00;4.00;;;;;22.85;56.02;99211.84;5088464;27;46440;-82
2023/09/21 09:06:40;;;;;;;;;5.00;4.00;;;;;22.87;55.97;99222.44;5085885;27;45483;-81
2023/09/21 09:09:07;;;;;;;;;6.00;4.00;;;;;22.87;56.66;99225.09;5067428;27;45527;-81
2023/09/21 09:11:45;;;;;;;;;6.00;4.67;;;;;22.73;57.12;99241.63;5082679;27;45588;-81
2023/09/21 09:14:19;;;;;;;;;4.00;4.00;;;;;22.67;57.27;99239.22;5064424;28;46202;-72
2023/09/21 09:16:52;;;;;;;;;4.67;4.33;;;;;22.68;57.99;99235.63;5044661;28;45399;-82
2023/09/21 09:19:17;;;;;;;;;5.00;4.67;;;;;22.67;57.63;99256.06;5070059;28;45418;-81
2023/09/21 09:21:48;;;;;;;;;3.00;3.00;;;;;22.49;58.19;99251.47;5092730;28;45504;-78
2023/09/21 09:24:14;;;;;;;;;4.67;4.67;;;;;22.41;59.27;99249.97;5075115;28;45509;-77
2023/09/21 09:26:41;;;;;;;;;2.67;2.67;;;;;22.47;58.50;99267.50;5078796;28;45591;-77
2023/09/21 09:29:12;;;;;;;;;7.00;6.00;;;;;22.44;59.69;99263.19;5082767;28;45319;-74
2023/09/21 09:31:41;;;;;;;;;3.33;3.00;;;;;22.56;58.76;99269.81;5071770;27;45366;-80
2023/09/21 09:34:12;;;;;;;;;5.00;3.33;;;;;22.66;57.74;99241.03;5072076;28;45467;-80
2023/09/21 09:36:50;;;;;;;;;5.00;4.00;;;;;22.74;58.65;99262.88;5064334;28;45537;-77
2023/09/21 09:39:18;;;;;;;;;6.00;5.00;;;;;22.71;58.08;99246.16;5080608;27;45720;-75
2023/09/21 09:41:48;;;;;;;;;3.00;3.00;;;;;22.64;58.98;99230.44;5061704;28;45408;-80
2023/09/21 09:44:21;;;;;;;;;4.00;4.00;;;;;22.61;59.10;99216.38;5041270;28;47448;-80
2023/09/21 09:46:49;;;;;;;;;4.00;4.00;;;;;22.70;58.34;99233.78;5072608;28;45247;-80
2023/09/21 09:49:18;;;;;;;;;4.00;3.33;;;;;22.74;58.46;99238.94;5075355;27;45629;-81
2023/09/21 09:51:44;;;;;;;;;4.00;4.00;;;;;22.80;58.86;99240.44;5077133;28;45523;-79
2023/09/21 09:54:16;;;;;;;;;4.00;4.00;;;;;22.86;58.41;99242.00;5075327;28;45496;-81
2023/09/21 09:56:42;;;;;;;;;6.67;6.00;;;;;22.87;58.11;99241.94;5057321;28;45497;-81
2023/09/21 09:59:11;;;;;;;;;5.00;5.00;;;;;22.64;58.46;99246.41;5059790;28;45441;-78
2023/09/21 10:01:41;;;;;;;;;4.00;4.00;;;;;22.79;58.76;99255.56;5079313;27;45717;-75
2023/09/21 10:04:07;;;;;;;;;3.33;3.33;;;;;22.80;58.22;99253.75;5059796;28;48136;-81
2023/09/21 10:06:37;;;;;;;;;5.33;4.67;;;;;22.81;58.85;99258.16;5070661;27;45446;-78
2023/09/21 10:09:11;;;;;;;;;5.00;5.00;;;;;22.88;58.27;99256.09;5058845;28;45363;-75
2023/09/21 10:11:49;;;;;;;;;7.00;6.00;;;;;22.70;58.12;99202.72;5058160;28;45378;-77
2023/09/21 10:14:17;;;;;;;;;4.67;4.67;;;;;23.02;58.00;99253.78;5073412;28;45467;-81
2023/09/21 10:16:53;;;;;;;;;5.33;5.00;;;;;22.91;58.43;99250.66;5067141;28;45557;-79
2023/09/21 10:19:29;;;;;;;;;8.67;6.67;;;;;22.79;58.80;99268.88;5051890;28;45581;-74
2023/09/21 10:22:03;;;;;;;;;5.33;4.33;;;;;22.64;59.64;99258.84;5056481;28;45464;-78
2023/09/21 10:24:30;;;;;;;;;4.67;4.00;;;;;22.66;59.47;99266.75;5058026;28;45471;-81
2023/09/21 10:27:03;;;;;;;;;4.67;4.67;;;;;22.57;60.35;99271.53;5051279;28;45397;-82
2023/09/21 10:29:36;;;;;;;;;3.00;3.00;;;;;22.50;59.96;99278.03;5069625;28;45390;-83
2023/09/21 10:32:08;;;;;;;;;4.00;4.00;;;;;22.48;60.12;99260.38;5079670;27;45261;-82
2023/09/21 10:34:34;;;;;;;;;4.00;4.00;;;;;22.47;60.64;99256.84;5079513;28;45405;-78
2023/09/21 10:37:15;;;;;;;;;3.33;2.00;;;;;22.56;60.52;99276.91;5078128;28;45275;-80
2023/09/21 10:39:41;;;;;;;;;3.67;3.33;;;;;22.49;60.74;99284.28;5073360;28;45470;-79
2023/09/21 10:42:06;;;;;;;;;3.00;2.67;;;;;22.44;61.06;99297.78;5065989;28;45494;-80
2023/09/21 10:45:00;;;;;;;;;2.33;2.00;;;;;22.30;62.35;99300.06;5059502;28;46210;-80
2023/09/21 10:47:34;;;;;;;;;2.33;2.00;;;;;22.28;61.73;99298.41;5072561;28;45477;-82
2023/09/21 10:50:12;;;;;;;;;2.00;2.00;;;;;22.22;61.33;99297.69;5067558;28;45595;-78
2023/09/21 10:52:39;;;;;;;;;0.00;0.00;;;;;22.18;60.72;99285.44;5078226;28;45339;-83
2023/09/21 10:55:07;;;;;;;;;0.67;0.67;;;;;22.17;61.52;99293.47;5076398;28;45315;-83
2023/09/21 10:57:33;;;;;;;;;0.33;0.33;;;;;22.10;60.88;99291.94;5047459;28;45402;-80
2023/09/21 11:00:07;;;;;;;;;1.00;1.00;;;;;21.89;61.17;99280.34;5051281;28;45519;-77
2023/09/21 11:02:35;;;;;;;;;2.00;2.00;;;;;21.78;60.41;99294.84;5064713;28;45411;-78
2023/09/21 11:05:03;;;;;;;;;0.00;0.00;;;;;21.71;60.90;99276.56;5062237;28;46329;-76
2023/09/21 11:07:29;;;;;;;;;0.00;0.00;;;;;21.64;60.28;99276.75;5069353;27;45600;-76
2023/09/21 11:09:56;;;;;;;;;0.00;0.00;;;;;21.63;61.00;99306.06;5067602;28;45632;-80
2023/09/21 11:12:22;;;;;;;;;1.00;0.00;;;;;21.54;60.69;99291.28;5073280;27;45489;-79
2023/09/21 11:14:48;;;;;;;;;0.00;0.00;;;;;21.76;61.14;99317.09;5064823;28;45960;-80
2023/09/21 11:17:18;;;;;;;;;0.00;0.00;;;;;21.68;60.46;99308.53;5068188;28;45417;-80
2023/09/21 11:19:46;;;;;;;;;0.00;0.00;;;;;21.52;61.38;99311.72;5057560;28;45550;-80
2023/09/21 11:22:15;;;;;;;;;0.00;0.00;;;;;21.47;61.09;99318.13;5057182;28;45539;-74
2023/09/21 11:24:42;;;;;;;;;0.00;0.00;;;;;21.42;61.81;99321.78;5039262;28;45580;-79
2023/09/21 11:27:14;;;;;;;;;0.00;0.00;;;;;21.35;61.35;99322.06;5048458;28;45670;-80
2023/09/21 11:29:42;;;;;;;;;0.00;0.00;;;;;21.20;62.16;99315.47;5063267;28;45295;-80
2023/09/21 11:32:18;;;;;;;;;0.00;0.00;;;;;21.33;61.75;99306.16;5073482;28;45336;-80
2023/09/21 11:34:44;;;;;;;;;1.00;1.00;;;;;21.47;60.84;99305.72;5064224;27;45964;-80
2023/09/21 11:37:12;;;;;;;;;0.00;0.00;;;;;21.43;60.84;99290.81;5077199;28;45534;-80
2023/09/21 11:39:41;;;;;;;;;0.00;0.00;;;;;21.59;60.83;99302.63;5042766;28;46453;-79
2023/09/21 11:42:08;;;;;;;;;1.00;0.00;;;;;21.64;60.93;99298.00;5039695;28;45244;-80